Terminal Aerodrome Forecast
Issued by NWS

Current Version | Previous Version | Graphics & Text | Print | Product List | Glossary On
Versions: 1 2 3 4 5 6 7 8 9 10 11 12 13 14 15 16 17 18 19 20 21 22 23 24 25 26 27 28 29 30 31
000
FTUS41 KRNK 271134
TAFLWB
TAF
KLWB 271134Z 2712/2812 00000KT P6SM VCSH SCT050 OVC100
     FM271500 VRB03KT P6SM VCSH BKN045 OVC100
     FM271800 25004KT P6SM VCTS BKN045CB OVC100
     FM280100 00000KT 5SM BR VCSH BKN050
     FM280500 00000KT 2SM BR BKN050
      TEMPO 2808/2812 1/4SM FG VV001=

USA.gov is the U.S. government's official web portal to all federal, state and local government web resources and services.